Time,TemperatureF,DewpointF,PressureIn,WindDirection,WindDirectionDegrees,WindSpeedMPH,WindSpeedGustMPH,Humidity,HourlyPrecipIn,Conditions,Clouds,dailyrainin,SoftwareType,DateUTC
2013-04-18 00:13:00,54.9,9.0,30.11,NNE,17,0.0,-999.0,16,-99.99,,,0.00,weatherlink.com 1.10,2013-04-18 07:13:00,
2013-04-18 00:28:00,54.3,10.0,30.12,NNE,17,0.0,-999.0,17,-99.99,,,0.00,weatherlink.com 1.10,2013-04-18 07:28:00,
2013-04-18 00:43:00,54.7,10.0,30.12,NNE,17,0.0,-999.0,17,-99.99,,,0.00,weatherlink.com 1.10,2013-04-18 07:43:00,
2013-04-18 00:58:00,54.4,10.0,30.13,NNE,17,0.0,-999.0,17,-99.99,,,0.00,weatherlink.com 1.10,2013-04-18 07:58:00,
2013-04-18 01:13:00,53.7,10.0,30.13,NNE,17,0.0,-999.0,17,-99.99,,,0.00,weatherlink.com 1.10,2013-04-18 08:13:00,
2013-04-18 01:28:00,52.0,11.0,30.13,NNE,17,0.0,-999.0,19,-99.99,,,0.00,weatherlink.com 1.10,2013-04-18 08:28:00,
2013-04-18 01:43:00,50.2,10.0,30.13,NNE,17,0.0,-999.0,20,-99.99,,,0.00,weatherlink.com 1.10,2013-04-18 08:43:00,
2013-04-18 01:58:00,49.4,11.0,30.13,NNE,17,0.0,-999.0,21,-99.99,,,0.00,weatherlink.com 1.10,2013-04-18 08:58:00,
2013-04-18 02:13:00,49.4,11.0,30.13,NNE,17,0.0,-999.0,21,-99.99,,,0.00,weatherlink.com 1.10,2013-04-18 09:13:00,
2013-04-18 02:28:00,49.4,11.0,30.13,NNE,17,0.0,-999.0,21,-99.99,,,0.00,weatherlink.com 1.10,2013-04-18 09:28:00,
2013-04-18 02:43:00,49.8,11.0,30.13,NNE,17,0.0,-999.0,21,-99.99,,,0.00,weatherlink.com 1.10,2013-04-18 09:43:00,
2013-04-18 02:58:00,50.3,12.0,30.14,NNE,17,0.0,-999.0,21,-99.99,,,0.00,weatherlink.com 1.10,2013-04-18 09:58:00,
2013-04-18 03:13:00,52.8,13.0,30.14,NNW,343,4.0,-999.0,20,-99.99,,,0.00,weatherlink.com 1.10,2013-04-18 10:13:00,
2013-04-18 03:28:00,55.8,14.0,30.14,NNW,346,4.0,-999.0,19,-99.99,,,0.00,weatherlink.com 1.10,2013-04-18 10:28:00,
2013-04-18 03:43:00,55.5,14.0,30.15,NNW,343,0.0,-999.0,19,-99.99,,,0.00,weatherlink.com 1.10,2013-04-18 10:43:00,
2013-04-18 03:58:00,55.3,15.0,30.15,NNW,344,4.0,-999.0,20,-99.99,,,0.00,weatherlink.com 1.10,2013-04-18 10:58:00,
2013-04-18 04:13:00,54.7,16.0,30.15,NNW,337,4.0,-999.0,22,-99.99,,,0.00,weatherlink.com 1.10,2013-04-18 11:13:00,
2013-04-18 04:28:00,54.9,17.0,30.16,NNW,340,2.0,-999.0,22,-99.99,,,0.00,weatherlink.com 1.10,2013-04-18 11:28:00,
2013-04-18 04:43:00,53.6,16.0,30.16,NNW,345,0.0,-999.0,23,-99.99,,,0.00,weatherlink.com 1.10,2013-04-18 11:43:00,
2013-04-18 04:58:00,52.2,16.0,30.17,NNW,345,0.0,-999.0,24,-99.99,,,0.00,weatherlink.com 1.10,2013-04-18 11:58:00,
2013-04-18 05:13:00,51.2,16.0,30.17,NNW,345,0.0,-999.0,25,-99.99,,,0.00,weatherlink.com 1.10,2013-04-18 12:13:00,
2013-04-18 05:28:00,50.9,17.0,30.18,NNW,345,0.0,-999.0,26,-99.99,,,0.00,weatherlink.com 1.10,2013-04-18 12:28:00,
2013-04-18 05:43:00,51.6,18.0,30.18,NNW,345,3.0,-999.0,26,-99.99,,,0.00,weatherlink.com 1.10,2013-04-18 12:43:00,
2013-04-18 05:58:00,52.7,18.0,30.19,NNW,345,4.0,-999.0,25,-99.99,,,0.00,weatherlink.com 1.10,2013-04-18 12:58:00,
2013-04-18 06:13:00,52.8,18.0,30.20,NNW,345,0.0,-999.0,25,-99.99,,,0.00,weatherlink.com 1.10,2013-04-18 13:13:00,
2013-04-18 06:28:00,52.4,18.0,30.20,NNW,345,0.0,-999.0,26,-99.99,,,0.00,weatherlink.com 1.10,2013-04-18 13:28:00,
2013-04-18 06:44:00,53.1,19.0,30.21,North,5,6.0,-999.0,26,-99.99,,,0.00,weatherlink.com 1.10,2013-04-18 13:44:00,
2013-04-18 06:59:00,54.4,20.0,30.22,North,360,5.0,-999.0,26,-99.99,,,0.00,weatherlink.com 1.10,2013-04-18 13:59:00,
2013-04-18 07:14:00,55.8,20.0,30.22,North,355,5.0,-999.0,25,-99.99,,,0.00,weatherlink.com 1.10,2013-04-18 14:14:00,
2013-04-18 07:29:00,57.4,21.0,30.24,North,355,2.0,-999.0,24,-99.99,,,0.00,weatherlink.com 1.10,2013-04-18 14:29:00,
2013-04-18 07:44:00,56.8,21.0,30.24,NW,319,3.0,-999.0,25,-99.99,,,0.00,weatherlink.com 1.10,2013-04-18 14:44:00,
2013-04-18 07:58:00,58.2,21.0,30.24,NW,324,4.0,-999.0,24,-99.99,,,0.00,weatherlink.com 1.10,2013-04-18 14:58:00,
2013-04-18 08:15:00,59.6,20.0,30.24,North,349,5.0,-999.0,22,-99.99,,,0.00,weatherlink.com 1.10,2013-04-18 15:15:00,
2013-04-18 08:29:00,60.7,20.0,30.24,NNW,335,10.0,-999.0,21,-99.99,,,0.00,weatherlink.com 1.10,2013-04-18 15:29:00,
2013-04-18 08:44:00,61.5,17.0,30.24,North,355,11.0,-999.0,18,-99.99,,,0.00,weatherlink.com 1.10,2013-04-18 15:44:00,
2013-04-18 08:59:00,62.6,18.0,30.24,NNE,13,10.0,-999.0,18,-99.99,,,0.00,weatherlink.com 1.10,2013-04-18 15:59:00,
2013-04-18 09:14:00,63.6,16.0,30.24,NNW,343,11.0,-999.0,16,-99.99,,,0.00,weatherlink.com 1.10,2013-04-18 16:14:00,
2013-04-18 09:29:00,63.6,18.0,30.24,NW,325,5.0,-999.0,17,-99.99,,,0.00,weatherlink.com 1.10,2013-04-18 16:29:00,
2013-04-18 09:45:00,64.5,14.0,30.24,North,5,9.0,-999.0,14,-99.99,,,0.00,weatherlink.com 1.10,2013-04-18 16:45:00,
2013-04-18 09:59:00,65.1,15.0,30.24,North,350,9.0,-999.0,14,-99.99,,,0.00,weatherlink.com 1.10,2013-04-18 16:59:00,
2013-04-18 10:14:00,65.6,11.0,30.24,NNW,339,12.0,-999.0,12,-99.99,,,0.00,weatherlink.com 1.10,2013-04-18 17:14:00,
2013-04-18 11:24:00,66.8,12.0,30.23,NNW,327,5.0,-999.0,12,-99.99,,,0.00,weatherlink.com 1.10,2013-04-18 18:24:00,
2013-04-18 11:29:00,67.4,13.0,30.23,NE,40,4.0,-999.0,12,-99.99,,,0.00,weatherlink.com 1.10,2013-04-18 18:29:00,
2013-04-18 11:44:00,66.5,12.0,30.23,NNE,17,8.0,-999.0,12,-99.99,,,0.00,weatherlink.com 1.10,2013-04-18 18:44:00,
2013-04-18 11:59:00,67.9,13.0,30.23,NW,309,7.0,-999.0,12,-99.99,,,0.00,weatherlink.com 1.10,2013-04-18 18:59:00,
2013-04-18 12:14:00,68.1,13.0,30.22,NNE,32,6.0,-999.0,12,-99.99,,,0.00,weatherlink.com 1.10,2013-04-18 19:14:00,
2013-04-18 12:29:00,68.6,12.0,30.22,North,5,7.0,-999.0,11,-99.99,,,0.00,weatherlink.com 1.10,2013-04-18 19:29:00,
2013-04-18 12:44:00,68.8,12.0,30.22,NNW,331,1.0,-999.0,11,-99.99,,,0.00,weatherlink.com 1.10,2013-04-18 19:44:00,
2013-04-18 12:59:00,69.4,12.0,30.21,North,355,5.0,-999.0,11,-99.99,,,0.00,weatherlink.com 1.10,2013-04-18 19:59:00,
2013-04-18 13:14:00,69.8,11.0,30.21,NNW,338,7.0,-999.0,10,-99.99,,,0.00,weatherlink.com 1.10,2013-04-18 20:14:00,
2013-04-18 13:29:00,70.1,11.0,30.20,WNW,293,3.0,-999.0,10,-99.99,,,0.00,weatherlink.com 1.10,2013-04-18 20:29:00,
2013-04-18 13:44:00,70.8,11.0,30.19,West,281,3.0,-999.0,10,-99.99,,,0.00,weatherlink.com 1.10,2013-04-18 20:44:00,
2013-04-18 13:59:00,70.6,9.0,30.19,NNW,342,8.0,-999.0,9,-99.99,,,0.00,weatherlink.com 1.10,2013-04-18 20:59:00,
2013-04-18 14:14:00,71.2,9.0,30.19,NNW,348,9.0,-999.0,9,-99.99,,,0.00,weatherlink.com 1.10,2013-04-18 21:14:00,
2013-04-18 14:29:00,71.1,12.0,30.18,NNW,333,10.0,-999.0,10,-99.99,,,0.00,weatherlink.com 1.10,2013-04-18 21:29:00,
2013-04-18 14:45:00,71.3,12.0,30.17,NNW,348,9.0,-999.0,10,-99.99,,,0.00,weatherlink.com 1.10,2013-04-18 21:45:00,
2013-04-18 15:00:00,71.6,12.0,30.16,WNW,295,12.0,-999.0,10,-99.99,,,0.00,weatherlink.com 1.10,2013-04-18 22:00:00,
2013-04-18 15:15:00,72.0,10.0,30.16,North,11,6.0,-999.0,9,-99.99,,,0.00,weatherlink.com 1.10,2013-04-18 22:15:00,
2013-04-18 15:29:00,72.3,13.0,30.15,North,355,9.0,-999.0,10,-99.99,,,0.00,weatherlink.com 1.10,2013-04-18 22:29:00,
2013-04-18 15:45:00,72.7,10.0,30.15,NNW,346,8.0,-999.0,9,-99.99,,,0.00,weatherlink.com 1.10,2013-04-18 22:45:00,
2013-04-18 16:00:00,72.6,10.0,30.14,NW,304,4.0,-999.0,9,-99.99,,,0.00,weatherlink.com 1.10,2013-04-18 23:00:00,
2013-04-18 16:14:00,72.7,10.0,30.14,West,279,6.0,-999.0,9,-99.99,,,0.00,weatherlink.com 1.10,2013-04-18 23:14:00,
2013-04-18 16:30:00,72.7,10.0,30.14,WNW,296,7.0,-999.0,9,-99.99,,,0.00,weatherlink.com 1.10,2013-04-18 23:30:00,
2013-04-18 16:45:00,73.1,11.0,30.14,North,351,5.0,-999.0,9,-99.99,,,0.00,weatherlink.com 1.10,2013-04-18 23:45:00,
2013-04-18 16:59:00,72.9,11.0,30.13,North,349,7.0,-999.0,9,-99.99,,,0.00,weatherlink.com 1.10,2013-04-18 23:59:00,
2013-04-18 17:15:00,72.8,11.0,30.13,NW,311,5.0,-999.0,9,-99.99,,,0.00,weatherlink.com 1.10,2013-04-19 00:15:00,
2013-04-18 17:30:00,72.5,8.0,30.13,North,360,5.0,-999.0,8,-99.99,,,0.00,weatherlink.com 1.10,2013-04-19 00:30:00,
2013-04-18 17:44:00,72.5,10.0,30.13,NW,309,5.0,-999.0,9,-99.99,,,0.00,weatherlink.com 1.10,2013-04-19 00:44:00,
2013-04-18 18:00:00,72.8,11.0,30.13,WNW,303,4.0,-999.0,9,-99.99,,,0.00,weatherlink.com 1.10,2013-04-19 01:00:00,
2013-04-18 18:15:00,71.8,10.0,30.13,NNW,338,9.0,-999.0,9,-99.99,,,0.00,weatherlink.com 1.10,2013-04-19 01:15:00,
2013-04-18 18:30:00,71.3,9.0,30.13,WNW,300,3.0,-999.0,9,-99.99,,,0.00,weatherlink.com 1.10,2013-04-19 01:30:00,
2013-04-18 18:45:00,70.4,9.0,30.13,NW,308,4.0,-999.0,9,-99.99,,,0.00,weatherlink.com 1.10,2013-04-19 01:45:00,
2013-04-18 19:00:00,69.8,8.0,30.13,NW,309,3.0,-999.0,9,-99.99,,,0.00,weatherlink.com 1.10,2013-04-19 02:00:00,
2013-04-18 19:15:00,69.2,8.0,30.14,NNW,333,4.0,-999.0,9,-99.99,,,0.00,weatherlink.com 1.10,2013-04-19 02:15:00,
2013-04-18 19:30:00,68.3,10.0,30.14,NNW,333,0.0,-999.0,10,-99.99,,,0.00,weatherlink.com 1.10,2013-04-19 02:30:00,
2013-04-18 19:44:00,67.5,9.0,30.15,NNW,333,0.0,-999.0,10,-99.99,,,0.00,weatherlink.com 1.10,2013-04-19 02:44:00,
2013-04-18 20:00:00,66.6,10.0,30.15,NNW,333,2.0,-999.0,11,-99.99,,,0.00,weatherlink.com 1.10,2013-04-19 03:00:00,
2013-04-18 20:15:00,65.9,12.0,30.16,NNW,333,1.0,-999.0,12,-99.99,,,0.00,weatherlink.com 1.10,2013-04-19 03:15:00,
2013-04-18 20:30:00,65.0,11.0,30.16,NNW,333,0.0,-999.0,12,-99.99,,,0.00,weatherlink.com 1.10,2013-04-19 03:30:00,
2013-04-18 20:45:00,63.9,12.0,30.16,NNW,333,0.0,-999.0,13,-99.99,,,0.00,weatherlink.com 1.10,2013-04-19 03:45:00,
2013-04-18 21:00:00,62.9,11.0,30.17,NNW,333,0.0,-999.0,13,-99.99,,,0.00,weatherlink.com 1.10,2013-04-19 04:00:00,
2013-04-18 21:15:00,61.4,13.0,30.17,NNW,333,0.0,-999.0,15,-99.99,,,0.00,weatherlink.com 1.10,2013-04-19 04:15:00,
2013-04-18 21:30:00,59.9,13.0,30.17,NNW,333,0.0,-999.0,16,-99.99,,,0.00,weatherlink.com 1.10,2013-04-19 04:30:00,
2013-04-18 21:45:00,58.7,12.0,30.17,NNW,333,0.0,-999.0,16,-99.99,,,0.00,weatherlink.com 1.10,2013-04-19 04:45:00,
2013-04-18 22:00:00,58.0,13.0,30.17,NNW,333,0.0,-999.0,17,-99.99,,,0.00,weatherlink.com 1.10,2013-04-19 05:00:00,
2013-04-18 22:15:00,57.5,13.0,30.17,NNW,333,0.0,-999.0,17,-99.99,,,0.00,weatherlink.com 1.10,2013-04-19 05:15:00,
2013-04-18 22:30:00,56.9,14.0,30.17,NNW,333,0.0,-999.0,18,-99.99,,,0.00,weatherlink.com 1.10,2013-04-19 05:30:00,
2013-04-18 22:46:00,55.5,12.0,30.17,NNW,333,0.0,-999.0,18,-99.99,,,0.00,weatherlink.com 1.10,2013-04-19 05:46:00,
2013-04-18 22:59:00,54.0,14.0,30.17,NNW,333,0.0,-999.0,20,-99.99,,,0.00,weatherlink.com 1.10,2013-04-19 05:59:00,
2013-04-18 23:14:00,53.5,13.0,30.17,NNW,333,0.0,-999.0,20,-99.99,,,0.00,weatherlink.com 1.10,2013-04-19 06:14:00,
2013-04-18 23:29:00,53.1,14.0,30.17,NNW,333,0.0,-999.0,21,-99.99,,,0.00,weatherlink.com 1.10,2013-04-19 06:29:00,
2013-04-18 23:44:00,52.1,13.0,30.17,NNW,333,0.0,-999.0,21,-99.99,,,0.00,weatherlink.com 1.10,2013-04-19 06:44:00,
2013-04-18 23:59:00,52.2,14.0,30.17,NNW,333,0.0,-999.0,22,-99.99,,,0.00,weatherlink.com 1.10,2013-04-19 06:59:00,